KOLF/OLF METAR and TAF weather

Enter ICAO airport designator
Station Type Date Time Source
KOLF METAR 2019/04/20 21:53 UTC NOAA

KOLF 202153Z AUTO 12005KT 10SM CLR 17/03 A2979 RMK AO2 SLP090 T01670028


Station Type Date Time Source
KOLF Decoded METAR 2019/04/20 21:53 UTC NOAA

WOLF POINT CLAYTON AIRPORT, MT, United States (KOLF) 48-06N 105-35W 604M
Apr 20, 2019 - 05:53 PM EDT / 2019.04.20 2153 UTC
Wind: from the ESE (120 degrees) at 6 MPH (5 KT):0
Visibility: 10 mile(s):0
Sky conditions: clear
Temperature: 62.1 F (16.7 C)
Dew Point: 37.0 F (2.8 C)
Relative Humidity: 39%
Pressure (altimeter): 29.79 in. Hg (1008 hPa)
ob: KOLF 202153Z AUTO 12005KT 10SM CLR 17/03 A2979 RMK AO2 SLP090 T01670028
cycle: 22

Station Type Date Time Source
KOLF TAF 2019/04/20 18:22 UTC NOAA

TAF KOLF 201720Z 2018/2118 02010KT P6SM BKN050
FM211400 02010KT P6SM SCT080

Example: see airport list